sensor_id;sensor_type;location;lat;lon;timestamp;temperature;humidity
59208;DHT22;44977;53.132;6.408;2022-11-10T00:04:37;9.80;99.90
59208;DHT22;44977;53.132;6.408;2022-11-10T00:09:38;9.70;99.90
59208;DHT22;44977;53.132;6.408;2022-11-10T00:14:38;9.70;99.90
59208;DHT22;44977;53.132;6.408;2022-11-10T00:19:58;9.70;99.90
59208;DHT22;44977;53.132;6.408;2022-11-10T00:24:58;9.70;99.90
59208;DHT22;44977;53.132;6.408;2022-11-10T00:30:00;9.70;99.90
59208;DHT22;44977;53.132;6.408;2022-11-10T00:35:00;9.60;99.90
59208;DHT22;44977;53.132;6.408;2022-11-10T00:40:01;9.70;99.90
59208;DHT22;44977;53.132;6.408;2022-11-10T00:45:02;9.60;99.90
59208;DHT22;44977;53.132;6.408;2022-11-10T00:50:03;9.60;99.90
59208;DHT22;44977;53.132;6.408;2022-11-10T00:55:04;9.60;99.90
59208;DHT22;44977;53.132;6.408;2022-11-10T01:00:05;9.60;99.90
59208;DHT22;44977;53.132;6.408;2022-11-10T01:05:06;9.70;99.90
59208;DHT22;44977;53.132;6.408;2022-11-10T01:10:07;9.60;99.90
59208;DHT22;44977;53.132;6.408;2022-11-10T01:15:09;9.60;99.90
59208;DHT22;44977;53.132;6.408;2022-11-10T01:20:09;9.60;99.90
59208;DHT22;44977;53.132;6.408;2022-11-10T01:25:10;9.60;99.90
59208;DHT22;44977;53.132;6.408;2022-11-10T01:30:11;9.60;99.90
59208;DHT22;44977;53.132;6.408;2022-11-10T01:35:12;9.60;99.90
59208;DHT22;44977;53.132;6.408;2022-11-10T01:40:13;9.60;99.90
59208;DHT22;44977;53.132;6.408;2022-11-10T01:50:26;9.50;99.90
59208;DHT22;44977;53.132;6.408;2022-11-10T01:55:28;9.40;99.90
59208;DHT22;44977;53.132;6.408;2022-11-10T02:00:29;9.40;99.90
59208;DHT22;44977;53.132;6.408;2022-11-10T02:05:30;9.50;99.90
59208;DHT22;44977;53.132;6.408;2022-11-10T02:10:31;9.40;99.90
59208;DHT22;44977;53.132;6.408;2022-11-10T02:15:32;9.40;99.90
59208;DHT22;44977;53.132;6.408;2022-11-10T02:20:33;9.40;99.90
59208;DHT22;44977;53.132;6.408;2022-11-10T02:25:33;9.30;99.90
59208;DHT22;44977;53.132;6.408;2022-11-10T02:30:34;9.30;99.90
59208;DHT22;44977;53.132;6.408;2022-11-10T02:35:35;9.30;99.90
59208;DHT22;44977;53.132;6.408;2022-11-10T02:40:35;9.30;99.90
59208;DHT22;44977;53.132;6.408;2022-11-10T02:45:36;9.30;99.90
59208;DHT22;44977;53.132;6.408;2022-11-10T02:50:43;9.30;99.90
59208;DHT22;44977;53.132;6.408;2022-11-10T02:55:44;9.30;99.90
59208;DHT22;44977;53.132;6.408;2022-11-10T03:00:44;9.30;99.90
59208;DHT22;44977;53.132;6.408;2022-11-10T03:05:45;9.30;99.90
59208;DHT22;44977;53.132;6.408;2022-11-10T03:10:46;9.30;99.90
59208;DHT22;44977;53.132;6.408;2022-11-10T03:15:47;9.30;99.90
59208;DHT22;44977;53.132;6.408;2022-11-10T03:20:48;9.30;99.90
59208;DHT22;44977;53.132;6.408;2022-11-10T03:25:49;9.40;99.90
59208;DHT22;44977;53.132;6.408;2022-11-10T03:30:50;9.40;99.90
59208;DHT22;44977;53.132;6.408;2022-11-10T03:35:51;9.40;99.90
59208;DHT22;44977;53.132;6.408;2022-11-10T03:40:51;9.40;99.90
59208;DHT22;44977;53.132;6.408;2022-11-10T03:45:52;9.40;99.90
59208;DHT22;44977;53.132;6.408;2022-11-10T03:50:52;9.40;99.90
59208;DHT22;44977;53.132;6.408;2022-11-10T03:55:53;9.40;99.90
59208;DHT22;44977;53.132;6.408;2022-11-10T04:00:54;9.40;99.90
59208;DHT22;44977;53.132;6.408;2022-11-10T04:05:55;9.40;99.90
59208;DHT22;44977;53.132;6.408;2022-11-10T04:11:14;9.40;99.90
59208;DHT22;44977;53.132;6.408;2022-11-10T04:16:38;9.40;99.90
59208;DHT22;44977;53.132;6.408;2022-11-10T04:21:38;9.40;99.90
59208;DHT22;44977;53.132;6.408;2022-11-10T04:26:40;9.40;99.90
59208;DHT22;44977;53.132;6.408;2022-11-10T04:31:42;9.50;99.90
59208;DHT22;44977;53.132;6.408;2022-11-10T04:36:43;9.50;99.90
59208;DHT22;44977;53.132;6.408;2022-11-10T04:41:44;9.60;99.90
59208;DHT22;44977;53.132;6.408;2022-11-10T04:46:44;9.60;99.90
59208;DHT22;44977;53.132;6.408;2022-11-10T04:51:45;9.60;99.90
59208;DHT22;44977;53.132;6.408;2022-11-10T04:56:46;9.60;99.90
59208;DHT22;44977;53.132;6.408;2022-11-10T05:01:46;9.60;99.90
59208;DHT22;44977;53.132;6.408;2022-11-10T05:06:47;9.70;99.90
59208;DHT22;44977;53.132;6.408;2022-11-10T05:11:48;9.70;99.90
59208;DHT22;44977;53.132;6.408;2022-11-10T05:16:48;9.70;99.90
59208;DHT22;44977;53.132;6.408;2022-11-10T05:21:49;9.70;99.90
59208;DHT22;44977;53.132;6.408;2022-11-10T05:26:50;9.70;99.90
59208;DHT22;44977;53.132;6.408;2022-11-10T05:31:50;9.70;99.90
59208;DHT22;44977;53.132;6.408;2022-11-10T05:36:51;9.70;99.90
59208;DHT22;44977;53.132;6.408;2022-11-10T05:41:51;9.70;99.90
59208;DHT22;44977;53.132;6.408;2022-11-10T05:46:52;9.70;99.90
59208;DHT22;44977;53.132;6.408;2022-11-10T05:51:53;9.70;99.90
59208;DHT22;44977;53.132;6.408;2022-11-10T05:56:53;9.70;99.90
59208;DHT22;44977;53.132;6.408;2022-11-10T06:01:54;9.70;99.90
59208;DHT22;44977;53.132;6.408;2022-11-10T06:06:55;9.70;99.90
59208;DHT22;44977;53.132;6.408;2022-11-10T06:11:55;9.80;99.90
59208;DHT22;44977;53.132;6.408;2022-11-10T06:16:57;9.80;99.90
59208;DHT22;44977;53.132;6.408;2022-11-10T06:21:58;9.80;99.90
59208;DHT22;44977;53.132;6.408;2022-11-10T06:26:58;9.80;99.90
59208;DHT22;44977;53.132;6.408;2022-11-10T06:31:59;9.80;99.90
59208;DHT22;44977;53.132;6.408;2022-11-10T06:37:00;9.80;99.90
59208;DHT22;44977;53.132;6.408;2022-11-10T06:42:01;9.80;99.90
59208;DHT22;44977;53.132;6.408;2022-11-10T06:47:01;9.80;99.90
59208;DHT22;44977;53.132;6.408;2022-11-10T06:52:02;9.80;99.90
59208;DHT22;44977;53.132;6.408;2022-11-10T06:57:03;9.80;99.90
59208;DHT22;44977;53.132;6.408;2022-11-10T07:02:03;9.90;99.90
59208;DHT22;44977;53.132;6.408;2022-11-10T07:07:04;9.90;99.90
59208;DHT22;44977;53.132;6.408;2022-11-10T07:12:05;9.90;99.90
59208;DHT22;44977;53.132;6.408;2022-11-10T07:17:06;9.90;99.90
59208;DHT22;44977;53.132;6.408;2022-11-10T07:22:06;10.00;99.90
59208;DHT22;44977;53.132;6.408;2022-11-10T07:27:07;10.00;99.90
59208;DHT22;44977;53.132;6.408;2022-11-10T07:32:08;10.10;99.90
59208;DHT22;44977;53.132;6.408;2022-11-10T07:37:08;10.10;99.90
59208;DHT22;44977;53.132;6.408;2022-11-10T07:42:09;10.10;99.90
59208;DHT22;44977;53.132;6.408;2022-11-10T07:47:10;10.10;99.90
59208;DHT22;44977;53.132;6.408;2022-11-10T07:52:10;10.10;99.90
59208;DHT22;44977;53.132;6.408;2022-11-10T07:57:11;10.20;99.90
59208;DHT22;44977;53.132;6.408;2022-11-10T08:02:12;10.20;99.90
59208;DHT22;44977;53.132;6.408;2022-11-10T08:07:13;10.20;99.90
59208;DHT22;44977;53.132;6.408;2022-11-10T08:12:13;10.20;99.90
59208;DHT22;44977;53.132;6.408;2022-11-10T08:17:14;10.20;99.90
59208;DHT22;44977;53.132;6.408;2022-11-10T08:22:15;10.40;99.90
59208;DHT22;44977;53.132;6.408;2022-11-10T08:27:15;10.60;99.90
59208;DHT22;44977;53.132;6.408;2022-11-10T08:32:18;10.80;99.90
59208;DHT22;44977;53.132;6.408;2022-11-10T08:37:20;10.90;99.90
59208;DHT22;44977;53.132;6.408;2022-11-10T08:42:21;11.10;99.90
59208;DHT22;44977;53.132;6.408;2022-11-10T08:47:21;11.20;99.90
59208;DHT22;44977;53.132;6.408;2022-11-10T08:52:22;11.30;99.90
59208;DHT22;44977;53.132;6.408;2022-11-10T08:57:23;11.30;99.90
59208;DHT22;44977;53.132;6.408;2022-11-10T09:02:23;11.30;99.90
59208;DHT22;44977;53.132;6.408;2022-11-10T09:07:24;11.50;99.90
59208;DHT22;44977;53.132;6.408;2022-11-10T09:12:25;11.60;99.90
59208;DHT22;44977;53.132;6.408;2022-11-10T09:17:25;11.80;99.90
59208;DHT22;44977;53.132;6.408;2022-11-10T09:22:26;11.80;99.90
59208;DHT22;44977;53.132;6.408;2022-11-10T09:27:27;11.90;99.90
59208;DHT22;44977;53.132;6.408;2022-11-10T09:32:27;11.90;99.90
59208;DHT22;44977;53.132;6.408;2022-11-10T09:37:28;12.00;99.90
59208;DHT22;44977;53.132;6.408;2022-11-10T09:42:32;12.00;99.90
59208;DHT22;44977;53.132;6.408;2022-11-10T09:47:42;12.00;99.90
59208;DHT22;44977;53.132;6.408;2022-11-10T09:52:47;12.00;99.90
59208;DHT22;44977;53.132;6.408;2022-11-10T09:57:52;12.00;99.90
59208;DHT22;44977;53.132;6.408;2022-11-10T10:02:59;12.00;99.90
59208;DHT22;44977;53.132;6.408;2022-11-10T10:08:06;12.00;99.90
59208;DHT22;44977;53.132;6.408;2022-11-10T10:19:13;12.00;99.90
59208;DHT22;44977;53.132;6.408;2022-11-10T10:24:19;12.10;99.90
59208;DHT22;44977;53.132;6.408;2022-11-10T10:29:42;12.10;99.90
59208;DHT22;44977;53.132;6.408;2022-11-10T10:34:44;12.10;99.90
59208;DHT22;44977;53.132;6.408;2022-11-10T10:39:48;12.30;99.90
59208;DHT22;44977;53.132;6.408;2022-11-10T10:45:14;12.30;99.90
59208;DHT22;44977;53.132;6.408;2022-11-10T10:50:33;12.40;99.90
59208;DHT22;44977;53.132;6.408;2022-11-10T10:55:35;12.40;99.90
59208;DHT22;44977;53.132;6.408;2022-11-10T11:00:46;12.50;99.90
59208;DHT22;44977;53.132;6.408;2022-11-10T11:06:03;12.50;99.90
59208;DHT22;44977;53.132;6.408;2022-11-10T11:11:09;12.60;99.90
59208;DHT22;44977;53.132;6.408;2022-11-10T11:16:10;12.60;99.90
59208;DHT22;44977;53.132;6.408;2022-11-10T11:26:21;12.70;99.90
59208;DHT22;44977;53.132;6.408;2022-11-10T11:47:52;12.90;99.90
59208;DHT22;44977;53.132;6.408;2022-11-10T11:58:45;13.10;99.90
59208;DHT22;44977;53.132;6.408;2022-11-10T12:04:09;13.10;99.90
59208;DHT22;44977;53.132;6.408;2022-11-10T12:14:33;13.30;99.90
59208;DHT22;44977;53.132;6.408;2022-11-10T12:19:48;13.30;99.90
59208;DHT22;44977;53.132;6.408;2022-11-10T12:25:12;13.30;99.90
59208;DHT22;44977;53.132;6.408;2022-11-10T12:30:16;13.30;99.90
59208;DHT22;44977;53.132;6.408;2022-11-10T12:35:26;13.30;99.90
59208;DHT22;44977;53.132;6.408;2022-11-10T12:40:32;13.30;99.90
59208;DHT22;44977;53.132;6.408;2022-11-10T12:45:44;13.30;99.90
59208;DHT22;44977;53.132;6.408;2022-11-10T12:56:27;13.30;99.90
59208;DHT22;44977;53.132;6.408;2022-11-10T13:01:25;13.30;99.90
59208;DHT22;44977;53.132;6.408;2022-11-10T13:06:33;13.30;99.90
59208;DHT22;44977;53.132;6.408;2022-11-10T13:11:38;13.30;99.90
59208;DHT22;44977;53.132;6.408;2022-11-10T13:26:56;13.50;99.90
59208;DHT22;44977;53.132;6.408;2022-11-10T13:31:59;13.50;99.90
59208;DHT22;44977;53.132;6.408;2022-11-10T13:42:34;13.60;99.90
59208;DHT22;44977;53.132;6.408;2022-11-10T13:53:43;13.60;99.90
59208;DHT22;44977;53.132;6.408;2022-11-10T13:58:46;13.60;99.90
59208;DHT22;44977;53.132;6.408;2022-11-10T14:14:24;13.60;99.90
59208;DHT22;44977;53.132;6.408;2022-11-10T14:19:40;13.70;99.90
59208;DHT22;44977;53.132;6.408;2022-11-10T14:25:27;13.70;99.90
59208;DHT22;44977;53.132;6.408;2022-11-10T14:30:28;13.70;99.90
59208;DHT22;44977;53.132;6.408;2022-11-10T14:35:32;13.80;99.90
59208;DHT22;44977;53.132;6.408;2022-11-10T14:40:40;13.70;99.90
59208;DHT22;44977;53.132;6.408;2022-11-10T14:45:49;13.70;99.90
59208;DHT22;44977;53.132;6.408;2022-11-10T14:50:51;13.70;99.90
59208;DHT22;44977;53.132;6.408;2022-11-10T14:55:52;13.70;99.90
59208;DHT22;44977;53.132;6.408;2022-11-10T15:00:53;13.70;99.90
59208;DHT22;44977;53.132;6.408;2022-11-10T15:05:54;13.60;99.90
59208;DHT22;44977;53.132;6.408;2022-11-10T15:10:55;13.60;99.90
59208;DHT22;44977;53.132;6.408;2022-11-10T15:21:25;13.50;99.90
59208;DHT22;44977;53.132;6.408;2022-11-10T15:26:31;13.50;99.90
59208;DHT22;44977;53.132;6.408;2022-11-10T15:31:33;13.50;99.90
59208;DHT22;44977;53.132;6.408;2022-11-10T15:36:37;13.40;99.90
59208;DHT22;44977;53.132;6.408;2022-11-10T15:41:48;13.40;99.90
59208;DHT22;44977;53.132;6.408;2022-11-10T15:46:54;13.40;99.90
59208;DHT22;44977;53.132;6.408;2022-11-10T15:52:00;13.30;99.90
59208;DHT22;44977;53.132;6.408;2022-11-10T15:57:01;13.30;99.90
59208;DHT22;44977;53.132;6.408;2022-11-10T16:02:08;13.30;99.90
59208;DHT22;44977;53.132;6.408;2022-11-10T16:07:10;13.20;99.90
59208;DHT22;44977;53.132;6.408;2022-11-10T16:12:16;13.20;99.90
59208;DHT22;44977;53.132;6.408;2022-11-10T16:17:18;13.20;99.90
59208;DHT22;44977;53.132;6.408;2022-11-10T16:22:18;13.10;99.90
59208;DHT22;44977;53.132;6.408;2022-11-10T16:27:19;13.10;99.90
59208;DHT22;44977;53.132;6.408;2022-11-10T16:32:20;13.20;99.90
59208;DHT22;44977;53.132;6.408;2022-11-10T16:37:20;13.20;99.90
59208;DHT22;44977;53.132;6.408;2022-11-10T16:42:21;13.10;99.90
59208;DHT22;44977;53.132;6.408;2022-11-10T16:47:22;13.10;99.90
59208;DHT22;44977;53.132;6.408;2022-11-10T16:52:23;13.10;99.90
59208;DHT22;44977;53.132;6.408;2022-11-10T16:57:23;13.10;99.90
59208;DHT22;44977;53.132;6.408;2022-11-10T17:02:28;13.10;99.90
59208;DHT22;44977;53.132;6.408;2022-11-10T17:07:29;13.00;99.90
59208;DHT22;44977;53.132;6.408;2022-11-10T17:12:30;13.00;99.90
59208;DHT22;44977;53.132;6.408;2022-11-10T17:17:31;13.00;99.90
59208;DHT22;44977;53.132;6.408;2022-11-10T17:22:33;13.00;99.90
59208;DHT22;44977;53.132;6.408;2022-11-10T17:27:35;13.00;99.90
59208;DHT22;44977;53.132;6.408;2022-11-10T17:32:36;13.00;99.90
59208;DHT22;44977;53.132;6.408;2022-11-10T17:37:38;13.00;99.90
59208;DHT22;44977;53.132;6.408;2022-11-10T17:42:39;13.00;99.90
59208;DHT22;44977;53.132;6.408;2022-11-10T17:47:40;13.00;99.90
59208;DHT22;44977;53.132;6.408;2022-11-10T17:52:41;13.10;99.90
59208;DHT22;44977;53.132;6.408;2022-11-10T17:57:42;13.10;99.90
59208;DHT22;44977;53.132;6.408;2022-11-10T18:02:43;13.00;99.90
59208;DHT22;44977;53.132;6.408;2022-11-10T18:07:48;13.00;99.90
59208;DHT22;44977;53.132;6.408;2022-11-10T18:12:51;13.10;99.90
59208;DHT22;44977;53.132;6.408;2022-11-10T18:17:51;13.10;99.90
59208;DHT22;44977;53.132;6.408;2022-11-10T18:22:53;13.10;99.90
59208;DHT22;44977;53.132;6.408;2022-11-10T18:27:54;13.00;99.90
59208;DHT22;44977;53.132;6.408;2022-11-10T18:32:54;13.10;99.90
59208;DHT22;44977;53.132;6.408;2022-11-10T18:37:56;13.00;99.90
59208;DHT22;44977;53.132;6.408;2022-11-10T18:42:58;13.00;99.90
59208;DHT22;44977;53.132;6.408;2022-11-10T18:48:00;13.10;99.90
59208;DHT22;44977;53.132;6.408;2022-11-10T18:53:02;13.10;99.90
59208;DHT22;44977;53.132;6.408;2022-11-10T18:58:03;13.00;99.90
59208;DHT22;44977;53.132;6.408;2022-11-10T19:03:04;13.10;99.90
59208;DHT22;44977;53.132;6.408;2022-11-10T19:08:05;13.10;99.90
59208;DHT22;44977;53.132;6.408;2022-11-10T19:13:10;13.00;99.90
59208;DHT22;44977;53.132;6.408;2022-11-10T19:18:10;13.00;99.90
59208;DHT22;44977;53.132;6.408;2022-11-10T19:23:11;13.00;99.90
59208;DHT22;44977;53.132;6.408;2022-11-10T19:28:12;13.00;99.90
59208;DHT22;44977;53.132;6.408;2022-11-10T19:33:12;13.00;99.90
59208;DHT22;44977;53.132;6.408;2022-11-10T19:38:13;13.00;99.90
59208;DHT22;44977;53.132;6.408;2022-11-10T19:43:14;12.90;99.90
59208;DHT22;44977;53.132;6.408;2022-11-10T19:48:15;12.90;99.90
59208;DHT22;44977;53.132;6.408;2022-11-10T19:53:16;12.90;99.90
59208;DHT22;44977;53.132;6.408;2022-11-10T19:58:17;12.80;99.90
59208;DHT22;44977;53.132;6.408;2022-11-10T20:03:17;12.80;99.90
59208;DHT22;44977;53.132;6.408;2022-11-10T20:08:18;12.80;99.90
59208;DHT22;44977;53.132;6.408;2022-11-10T20:13:19;12.80;99.90
59208;DHT22;44977;53.132;6.408;2022-11-10T20:18:19;12.80;99.90
59208;DHT22;44977;53.132;6.408;2022-11-10T20:23:20;12.70;99.90
59208;DHT22;44977;53.132;6.408;2022-11-10T20:28:21;12.70;99.90
59208;DHT22;44977;53.132;6.408;2022-11-10T20:33:21;12.70;99.90
59208;DHT22;44977;53.132;6.408;2022-11-10T20:38:23;12.70;99.90
59208;DHT22;44977;53.132;6.408;2022-11-10T20:43:24;12.70;99.90
59208;DHT22;44977;53.132;6.408;2022-11-10T20:48:24;12.70;99.90
59208;DHT22;44977;53.132;6.408;2022-11-10T20:53:27;12.70;99.90
59208;DHT22;44977;53.132;6.408;2022-11-10T20:58:29;12.60;99.90
59208;DHT22;44977;53.132;6.408;2022-11-10T21:03:30;12.60;99.90
59208;DHT22;44977;53.132;6.408;2022-11-10T21:08:31;12.60;99.90
59208;DHT22;44977;53.132;6.408;2022-11-10T21:13:33;12.60;99.90
59208;DHT22;44977;53.132;6.408;2022-11-10T21:18:35;12.60;99.90
59208;DHT22;44977;53.132;6.408;2022-11-10T21:23:36;12.50;99.90
59208;DHT22;44977;53.132;6.408;2022-11-10T21:28:38;12.50;99.90
59208;DHT22;44977;53.132;6.408;2022-11-10T21:33:39;12.50;99.90
59208;DHT22;44977;53.132;6.408;2022-11-10T21:38:43;12.50;99.90
59208;DHT22;44977;53.132;6.408;2022-11-10T21:43:44;12.40;99.90
59208;DHT22;44977;53.132;6.408;2022-11-10T21:48:44;12.40;99.90
59208;DHT22;44977;53.132;6.408;2022-11-10T21:53:45;12.40;99.90
59208;DHT22;44977;53.132;6.408;2022-11-10T21:58:46;12.40;99.90
59208;DHT22;44977;53.132;6.408;2022-11-10T22:03:47;12.30;99.90
59208;DHT22;44977;53.132;6.408;2022-11-10T22:08:48;12.30;99.90
59208;DHT22;44977;53.132;6.408;2022-11-10T22:13:48;12.30;99.90
59208;DHT22;44977;53.132;6.408;2022-11-10T22:19:08;12.30;99.90
59208;DHT22;44977;53.132;6.408;2022-11-10T22:24:09;12.30;99.90
59208;DHT22;44977;53.132;6.408;2022-11-10T22:29:30;12.30;99.90
59208;DHT22;44977;53.132;6.408;2022-11-10T22:34:30;12.30;99.90
59208;DHT22;44977;53.132;6.408;2022-11-10T22:39:31;12.30;99.90
59208;DHT22;44977;53.132;6.408;2022-11-10T22:44:51;12.30;99.90
59208;DHT22;44977;53.132;6.408;2022-11-10T22:49:51;12.30;99.90
59208;DHT22;44977;53.132;6.408;2022-11-10T22:54:52;12.30;99.90
59208;DHT22;44977;53.132;6.408;2022-11-10T22:59:53;12.30;99.90
59208;DHT22;44977;53.132;6.408;2022-11-10T23:04:53;12.30;99.90
59208;DHT22;44977;53.132;6.408;2022-11-10T23:09:54;12.30;99.90
59208;DHT22;44977;53.132;6.408;2022-11-10T23:14:54;12.30;99.90
59208;DHT22;44977;53.132;6.408;2022-11-10T23:19:55;12.20;99.90
59208;DHT22;44977;53.132;6.408;2022-11-10T23:24:56;12.20;99.90
59208;DHT22;44977;53.132;6.408;2022-11-10T23:29:56;12.20;99.90
59208;DHT22;44977;53.132;6.408;2022-11-10T23:34:57;12.10;99.90
59208;DHT22;44977;53.132;6.408;2022-11-10T23:39:58;12.10;99.90
59208;DHT22;44977;53.132;6.408;2022-11-10T23:44:58;12.10;99.90
59208;DHT22;44977;53.132;6.408;2022-11-10T23:49:59;12.00;99.90
59208;DHT22;44977;53.132;6.408;2022-11-10T23:54:59;12.00;99.90
